Time;durP1;ratioP1;P1;durP2;ratioP2;P2;SDS_P1;SDS_P2;PMS_P1;PMS_P2;Temp;Humidity;BMP_temperature;BMP_pressure;BME280_temperature;BME280_humidity;BME280_pressure;Samples;Min_cycle;Max_cycle;Signal;HPM_P1;HPM_P2
2022/10/15 00:00:20;;;;;;;55.53;41.47;;;;;;;;;;5081529;28;20051;-78
2022/10/15 00:02:45;;;;;;;59.83;45.00;;;;;;;;;;5072031;28;20073;-78
2022/10/15 00:05:11;;;;;;;56.05;41.63;;;;;;;;;;5072760;28;20400;-77
2022/10/15 00:07:36;;;;;;;44.55;33.67;;;;;;;;;;5079375;28;20148;-79
2022/10/15 00:10:02;;;;;;;44.25;32.13;;;;;;;;;;5082281;28;20023;-79
2022/10/15 00:12:27;;;;;;;59.65;40.22;;;;;;;;;;5082088;28;20406;-79
2022/10/15 00:14:53;;;;;;;35.70;27.20;;;;;;;;;;5072173;28;20057;-78
2022/10/15 00:17:18;;;;;;;57.72;40.75;;;;;;;;;;5080336;28;20324;-78
2022/10/15 00:19:43;;;;;;;53.75;38.47;;;;;;;;;;5069795;28;20101;-78
2022/10/15 00:22:09;;;;;;;30.02;21.50;;;;;;;;;;5081286;28;20043;-77
2022/10/15 00:24:35;;;;;;;22.90;15.63;;;;;;;;;;5078790;28;20509;-78
2022/10/15 00:27:00;;;;;;;20.55;14.85;;;;;;;;;;5074343;28;20477;-80
2022/10/15 00:29:26;;;;;;;19.95;16.35;;;;;;;;;;5082371;28;20016;-79
2022/10/15 00:31:51;;;;;;;18.63;14.88;;;;;;;;;;5081706;28;20400;-80
2022/10/15 00:34:16;;;;;;;17.05;13.25;;;;;;;;;;5077887;28;20020;-80
2022/10/15 00:36:42;;;;;;;12.68;11.32;;;;;;;;;;5073908;28;20031;-80
2022/10/15 00:39:07;;;;;;;13.07;11.35;;;;;;;;;;5081878;28;20110;-80
2022/10/15 00:41:39;;;;;;;15.18;11.20;;;;;;;;;;5083004;28;20328;-79
2022/10/15 00:44:23;;;;;;;27.00;19.38;;;;;;;;;;5080399;28;20046;-78
2022/10/15 00:46:50;;;;;;;26.85;19.27;;;;;;;;;;5081102;28;20016;-78
2022/10/15 00:49:34;;;;;;;30.00;20.45;;;;;;;;;;5081611;28;20024;-80
2022/10/15 00:52:08;;;;;;;30.67;22.23;;;;;;;;;;5080505;28;20031;-78
2022/10/15 00:54:38;;;;;;;51.03;30.40;;;;;;;;;;5081027;28;20063;-78
2022/10/15 00:57:04;;;;;;;36.20;23.23;;;;;;;;;;5082509;28;20024;-78
2022/10/15 00:59:31;;;;;;;30.77;22.27;;;;;;;;;;5081905;28;20058;-78
2022/10/15 01:01:58;;;;;;;23.13;17.20;;;;;;;;;;5081031;28;20359;-79
2022/10/15 01:04:23;;;;;;;19.95;14.05;;;;;;;;;;5075614;28;20325;-78
2022/10/15 01:06:49;;;;;;;18.40;14.13;;;;;;;;;;5077192;28;20115;-78
2022/10/15 01:09:14;;;;;;;20.98;13.82;;;;;;;;;;5080109;28;20078;-78
2022/10/15 01:11:41;;;;;;;17.52;12.88;;;;;;;;;;5081635;28;20028;-77
2022/10/15 01:14:26;;;;;;;14.77;12.25;;;;;;;;;;5080627;28;20020;-77
2022/10/15 01:16:55;;;;;;;19.65;11.93;;;;;;;;;;5081213;28;20111;-76
2022/10/15 01:19:49;;;;;;;15.60;12.98;;;;;;;;;;5080103;28;20028;-77
2022/10/15 01:22:20;;;;;;;15.25;11.50;;;;;;;;;;5074742;28;20047;-78
2022/10/15 01:25:05;;;;;;;12.90;11.00;;;;;;;;;;5080257;28;20020;-78
2022/10/15 01:27:54;;;;;;;14.73;12.38;;;;;;;;;;5049351;28;20040;-78
2022/10/15 01:30:19;;;;;;;14.60;11.18;;;;;;;;;;5072266;28;20047;-77
2022/10/15 01:32:48;;;;;;;15.55;10.68;;;;;;;;;;5081703;28;20030;-79
2022/10/15 01:35:19;;;;;;;22.13;13.75;;;;;;;;;;5080033;28;20454;-79
2022/10/15 01:37:58;;;;;;;25.00;19.00;;;;;;;;;;5081493;28;20016;-81
2022/10/15 01:40:35;;;;;;;24.00;18.75;;;;;;;;;;5081100;28;20115;-80
2022/10/15 01:43:02;;;;;;;24.08;17.50;;;;;;;;;;5079767;28;20346;-80
2022/10/15 01:45:44;;;;;;;22.40;16.48;;;;;;;;;;5080861;28;20016;-78
2022/10/15 01:48:11;;;;;;;21.67;16.90;;;;;;;;;;5080806;28;20234;-78
2022/10/15 01:50:45;;;;;;;19.50;15.25;;;;;;;;;;5080291;28;20813;-78
2022/10/15 01:53:14;;;;;;;20.95;16.45;;;;;;;;;;5079836;28;20347;-79
2022/10/15 01:55:41;;;;;;;22.65;18.30;;;;;;;;;;5080848;28;20024;-79
2022/10/15 01:58:08;;;;;;;25.02;19.45;;;;;;;;;;5080818;28;20118;-79
2022/10/15 02:00:33;;;;;;;26.20;19.67;;;;;;;;;;5081600;28;20047;-78
2022/10/15 02:02:59;;;;;;;23.05;17.45;;;;;;;;;;5081020;28;20020;-79
2022/10/15 02:05:28;;;;;;;23.88;18.58;;;;;;;;;;5081019;28;20013;-79
2022/10/15 02:08:06;;;;;;;27.88;20.15;;;;;;;;;;5078575;28;20035;-78
2022/10/15 02:11:00;;;;;;;18.67;14.95;;;;;;;;;;5081122;28;20131;-80
2022/10/15 02:13:41;;;;;;;18.20;16.20;;;;;;;;;;5071043;28;20060;-78
2022/10/15 02:16:15;;;;;;;16.40;13.65;;;;;;;;;;5072676;28;20472;-77
2022/10/15 02:18:46;;;;;;;19.55;14.93;;;;;;;;;;5077239;28;20020;-78
2022/10/15 02:21:15;;;;;;;17.52;13.88;;;;;;;;;;5081719;28;20020;-78
2022/10/15 02:23:40;;;;;;;17.00;13.82;;;;;;;;;;5081043;28;20405;-77
2022/10/15 02:26:07;;;;;;;15.77;13.07;;;;;;;;;;5081830;28;20035;-76
2022/10/15 02:28:33;;;;;;;17.60;13.65;;;;;;;;;;5081567;28;20335;-79
2022/10/15 02:30:59;;;;;;;15.48;13.35;;;;;;;;;;5082046;28;20114;-78
2022/10/15 02:33:25;;;;;;;18.63;13.68;;;;;;;;;;5081253;28;20020;-78
2022/10/15 02:35:51;;;;;;;15.98;12.48;;;;;;;;;;5080715;28;20028;-77
2022/10/15 02:38:19;;;;;;;13.48;11.05;;;;;;;;;;5082566;28;20097;-78
2022/10/15 02:40:45;;;;;;;14.32;12.35;;;;;;;;;;5083480;28;20039;-77
2022/10/15 02:43:11;;;;;;;19.73;14.55;;;;;;;;;;5083439;28;20036;-78
2022/10/15 02:45:37;;;;;;;18.13;14.90;;;;;;;;;;5084201;28;20443;-78
2022/10/15 02:48:03;;;;;;;21.63;13.85;;;;;;;;;;5082991;28;20141;-78
2022/10/15 02:50:28;;;;;;;20.95;14.45;;;;;;;;;;5084815;28;20020;-78
2022/10/15 02:52:53;;;;;;;17.30;14.65;;;;;;;;;;5084871;28;20085;-78
2022/10/15 02:55:19;;;;;;;21.13;15.45;;;;;;;;;;5083480;28;20359;-78
2022/10/15 02:57:44;;;;;;;19.55;15.20;;;;;;;;;;5084379;28;20028;-77
2022/10/15 03:00:10;;;;;;;20.73;16.95;;;;;;;;;;5084054;28;20466;-78
2022/10/15 03:02:35;;;;;;;23.00;14.95;;;;;;;;;;5081516;28;20058;-77
2022/10/15 03:05:00;;;;;;;19.70;13.98;;;;;;;;;;5082967;28;20081;-78
2022/10/15 03:07:26;;;;;;;17.70;14.52;;;;;;;;;;5077867;28;20036;-78
2022/10/15 03:09:51;;;;;;;20.30;16.05;;;;;;;;;;5073087;28;20028;-78
2022/10/15 03:12:16;;;;;;;19.25;14.77;;;;;;;;;;5082258;28;20030;-78
2022/10/15 03:14:42;;;;;;;23.60;16.23;;;;;;;;;;5084236;28;20059;-76
2022/10/15 03:17:07;;;;;;;23.80;16.85;;;;;;;;;;5084158;28;20031;-78
2022/10/15 03:19:32;;;;;;;27.67;18.67;;;;;;;;;;5083817;28;20016;-77
2022/10/15 03:21:58;;;;;;;21.05;15.68;;;;;;;;;;5083922;28;20038;-78
2022/10/15 03:24:23;;;;;;;21.88;16.40;;;;;;;;;;5082652;28;20044;-77
2022/10/15 03:26:48;;;;;;;19.27;14.25;;;;;;;;;;5079743;28;20350;-76
2022/10/15 03:29:14;;;;;;;35.58;24.67;;;;;;;;;;5075862;28;20026;-77
2022/10/15 03:31:39;;;;;;;65.95;51.53;;;;;;;;;;5083241;28;20071;-76
2022/10/15 03:34:04;;;;;;;76.13;64.57;;;;;;;;;;5081930;28;20016;-76
2022/10/15 03:36:30;;;;;;;81.00;67.00;;;;;;;;;;5083929;28;20115;-80
2022/10/15 03:38:55;;;;;;;61.72;49.85;;;;;;;;;;5083126;28;20038;-77
2022/10/15 03:41:20;;;;;;;55.80;42.22;;;;;;;;;;5083282;28;20027;-77
2022/10/15 03:43:46;;;;;;;42.58;32.20;;;;;;;;;;5082324;28;20028;-77
2022/10/15 03:46:11;;;;;;;52.83;38.92;;;;;;;;;;5082564;28;20526;-78
2022/10/15 03:48:37;;;;;;;30.67;25.48;;;;;;;;;;5083555;28;20105;-78
2022/10/15 03:51:02;;;;;;;31.10;25.08;;;;;;;;;;5082453;28;20036;-77
2022/10/15 03:53:27;;;;;;;35.38;29.33;;;;;;;;;;5081506;28;20454;-78
2022/10/15 03:55:53;;;;;;;37.00;28.27;;;;;;;;;;5082846;28;20059;-78
2022/10/15 03:58:18;;;;;;;36.33;25.23;;;;;;;;;;5082487;28;20028;-77
2022/10/15 04:00:43;;;;;;;60.47;47.35;;;;;;;;;;5082452;28;20081;-77
2022/10/15 04:03:09;;;;;;;48.90;36.60;;;;;;;;;;5082539;28;20541;-78
2022/10/15 04:05:35;;;;;;;36.78;30.00;;;;;;;;;;5081109;28;20036;-78
2022/10/15 04:08:00;;;;;;;36.65;29.30;;;;;;;;;;5081598;28;20127;-77
2022/10/15 04:10:25;;;;;;;35.42;28.40;;;;;;;;;;5082229;28;20409;-78
2022/10/15 04:12:51;;;;;;;31.40;24.20;;;;;;;;;;5082564;28;20028;-78
2022/10/15 04:15:16;;;;;;;26.50;22.40;;;;;;;;;;5082356;28;20681;-77
2022/10/15 04:17:42;;;;;;;22.05;18.90;;;;;;;;;;5082853;28;20036;-77
2022/10/15 04:20:07;;;;;;;21.58;17.63;;;;;;;;;;5081026;28;20032;-78
2022/10/15 04:22:32;;;;;;;18.95;15.73;;;;;;;;;;5081535;28;20043;-78
2022/10/15 04:24:58;;;;;;;20.27;16.52;;;;;;;;;;5081837;28;20060;-77
2022/10/15 04:27:23;;;;;;;19.58;15.52;;;;;;;;;;5077656;28;20520;-78
2022/10/15 04:29:48;;;;;;;32.22;26.02;;;;;;;;;;5071846;28;20046;-77
2022/10/15 04:32:14;;;;;;;35.17;27.27;;;;;;;;;;5081699;28;20085;-77
2022/10/15 04:34:40;;;;;;;33.63;25.85;;;;;;;;;;5079837;28;20035;-77
2022/10/15 04:37:05;;;;;;;24.98;20.50;;;;;;;;;;5082235;28;20032;-77
2022/10/15 04:39:30;;;;;;;22.15;17.67;;;;;;;;;;5081262;28;20081;-78
2022/10/15 04:41:56;;;;;;;19.63;16.00;;;;;;;;;;5081333;28;20039;-76
2022/10/15 04:44:21;;;;;;;22.40;15.95;;;;;;;;;;5080332;28;20032;-78
2022/10/15 04:46:46;;;;;;;33.65;26.38;;;;;;;;;;5073615;28;20439;-78
2022/10/15 04:49:12;;;;;;;50.28;39.47;;;;;;;;;;5069020;28;20053;-76
2022/10/15 04:51:37;;;;;;;53.55;42.75;;;;;;;;;;5068243;28;20047;-77
2022/10/15 04:54:03;;;;;;;48.22;37.85;;;;;;;;;;5067837;28;20328;-76
2022/10/15 04:56:28;;;;;;;52.80;39.35;;;;;;;;;;5067480;28;20530;-75
2022/10/15 04:58:53;;;;;;;55.95;41.25;;;;;;;;;;5067829;28;20055;-73
2022/10/15 05:01:19;;;;;;;67.10;50.30;;;;;;;;;;5070700;28;20049;-78
2022/10/15 05:03:45;;;;;;;54.95;41.15;;;;;;;;;;5074398;28;20032;-77
2022/10/15 05:06:12;;;;;;;51.67;41.30;;;;;;;;;;5067714;28;20031;-75
2022/10/15 05:08:41;;;;;;;57.05;44.53;;;;;;;;;;5068240;28;20143;-78
2022/10/15 05:11:09;;;;;;;63.65;46.70;;;;;;;;;;5068143;28;20035;-76
2022/10/15 05:13:34;;;;;;;54.05;38.25;;;;;;;;;;5066232;28;20650;-77
2022/10/15 05:16:20;;;;;;;74.18;59.58;;;;;;;;;;5074563;28;20042;-78
2022/10/15 05:18:47;;;;;;;40.65;29.85;;;;;;;;;;5081329;28;20132;-78
2022/10/15 05:21:12;;;;;;;42.47;31.83;;;;;;;;;;5080371;28;20115;-78
2022/10/15 05:23:38;;;;;;;43.35;34.53;;;;;;;;;;5080927;28;20102;-78
2022/10/15 05:26:05;;;;;;;31.55;26.63;;;;;;;;;;5069722;28;20024;-79
2022/10/15 05:28:31;;;;;;;39.55;31.13;;;;;;;;;;5079718;28;20346;-78
2022/10/15 05:31:02;;;;;;;23.52;20.63;;;;;;;;;;5081161;28;20123;-77
2022/10/15 05:33:27;;;;;;;28.60;24.63;;;;;;;;;;5080518;28;20059;-79
2022/10/15 05:35:52;;;;;;;46.53;34.83;;;;;;;;;;5080598;28;20059;-80
2022/10/15 05:38:18;;;;;;;47.38;37.58;;;;;;;;;;5080840;28;20024;-77
2022/10/15 05:40:48;;;;;;;44.22;34.30;;;;;;;;;;5081057;28;20039;-77
2022/10/15 05:43:13;;;;;;;;;;;;;;;;;;5081680;28;20056;-78
2022/10/15 05:45:38;;;;;;;104.33;65.30;;;;;;;;;;5073594;28;19989;-78
2022/10/15 05:48:04;;;;;;;71.25;42.50;;;;;;;;;;5077329;28;20474;-79
2022/10/15 05:50:29;;;;;;;48.97;30.95;;;;;;;;;;5080753;28;20370;-76
2022/10/15 05:52:54;;;;;;;55.95;39.22;;;;;;;;;;5081275;28;20023;-77
2022/10/15 05:55:20;;;;;;;59.65;43.30;;;;;;;;;;5081204;28;20506;-78
2022/10/15 05:57:45;;;;;;;61.13;41.08;;;;;;;;;;5067089;28;20020;-79
2022/10/15 06:00:11;;;;;;;93.53;51.00;;;;;;;;;;5073570;28;20035;-77
2022/10/15 06:02:36;;;;;;;98.45;52.35;;;;;;;;;;5066454;28;20028;-77
2022/10/15 06:05:01;;;;;;;104.57;57.55;;;;;;;;;;5069887;28;20107;-77
2022/10/15 06:07:27;;;;;;;89.68;48.80;;;;;;;;;;5081488;28;20045;-77
2022/10/15 06:09:52;;;;;;;111.07;65.25;;;;;;;;;;5081564;28;20031;-79
2022/10/15 06:12:17;;;;;;;80.18;50.40;;;;;;;;;;5080067;28;20020;-77
2022/10/15 06:14:43;;;;;;;480.75;227.80;;;;;;;;;;5072774;28;20023;-77
2022/10/15 06:17:08;;;;;;;574.67;443.83;;;;;;;;;;5076732;28;20221;-78
2022/10/15 06:19:33;;;;;;;180.52;131.38;;;;;;;;;;5078492;28;20027;-77
2022/10/15 06:21:59;;;;;;;71.18;54.28;;;;;;;;;;5078383;28;20268;-78
2022/10/15 06:24:24;;;;;;;70.68;53.67;;;;;;;;;;5082514;28;20059;-75
2022/10/15 06:26:49;;;;;;;75.68;58.47;;;;;;;;;;5069238;28;20047;-77
2022/10/15 06:29:15;;;;;;;72.22;54.88;;;;;;;;;;5071114;28;20027;-76
2022/10/15 06:31:41;;;;;;;71.80;54.80;;;;;;;;;;5070142;28;20043;-76
2022/10/15 06:34:06;;;;;;;97.05;71.22;;;;;;;;;;5069289;28;20033;-75
2022/10/15 06:36:31;;;;;;;93.30;78.25;;;;;;;;;;5068504;28;20020;-76
2022/10/15 06:38:57;;;;;;;91.70;73.43;;;;;;;;;;5070635;28;20577;-76
2022/10/15 06:41:22;;;;;;;86.63;71.13;;;;;;;;;;5070532;28;20121;-76
2022/10/15 06:43:48;;;;;;;90.05;71.85;;;;;;;;;;5069399;28;20432;-77
2022/10/15 06:46:13;;;;;;;145.75;88.88;;;;;;;;;;5069265;28;20605;-77
2022/10/15 06:48:39;;;;;;;111.07;89.55;;;;;;;;;;5069258;28;20450;-76
2022/10/15 06:51:04;;;;;;;98.18;83.30;;;;;;;;;;5069689;28;20329;-77
2022/10/15 06:53:30;;;;;;;145.73;122.45;;;;;;;;;;5069883;28;20028;-78
2022/10/15 06:55:56;;;;;;;77.00;61.83;;;;;;;;;;5073614;28;20028;-76
2022/10/15 06:58:21;;;;;;;67.55;46.38;;;;;;;;;;5080751;28;20089;-77
2022/10/15 07:00:47;;;;;;;56.40;44.50;;;;;;;;;;5080797;28;20440;-76
2022/10/15 07:03:12;;;;;;;47.35;39.20;;;;;;;;;;5086713;28;20035;-76
2022/10/15 07:05:38;;;;;;;58.35;40.67;;;;;;;;;;5094774;28;20032;-75
2022/10/15 07:08:04;;;;;;;37.92;28.38;;;;;;;;;;5094177;28;20039;-74
2022/10/15 07:10:29;;;;;;;39.35;29.30;;;;;;;;;;5109910;28;20117;-77
2022/10/15 07:12:54;;;;;;;52.67;39.20;;;;;;;;;;5094440;28;20102;-73
2022/10/15 07:15:20;;;;;;;60.72;42.35;;;;;;;;;;5078554;28;20032;-73
2022/10/15 07:18:00;;;;;;;39.03;27.95;;;;;;;;;;5075861;28;20103;-78
2022/10/15 07:20:26;;;;;;;33.60;24.83;;;;;;;;;;5075505;28;20039;-77
2022/10/15 07:22:59;;;;;;;27.70;21.85;;;;;;;;;;5075658;28;20347;-78
2022/10/15 07:25:25;;;;;;;29.15;21.10;;;;;;;;;;5075010;28;20025;-76
2022/10/15 07:27:50;;;;;;;31.50;25.33;;;;;;;;;;5078348;28;20028;-77
2022/10/15 07:30:15;;;;;;;38.08;31.17;;;;;;;;;;5075790;28;20060;-75
2022/10/15 07:32:42;;;;;;;34.53;23.95;;;;;;;;;;5075850;28;20024;-76
2022/10/15 07:35:07;;;;;;;29.35;23.27;;;;;;;;;;5075065;28;20551;-78
2022/10/15 07:37:33;;;;;;;31.73;23.92;;;;;;;;;;5074648;28;20112;-76
2022/10/15 07:39:58;;;;;;;49.05;31.98;;;;;;;;;;5075228;28;20016;-74
2022/10/15 07:42:23;;;;;;;35.33;24.30;;;;;;;;;;5075300;28;20032;-78
2022/10/15 07:44:49;;;;;;;36.25;31.73;;;;;;;;;;5075030;28;20020;-75
2022/10/15 07:47:14;;;;;;;37.15;28.40;;;;;;;;;;5075223;28;20372;-74
2022/10/15 07:49:39;;;;;;;31.80;26.85;;;;;;;;;;5075237;28;20063;-76
2022/10/15 07:52:07;;;;;;;38.03;27.73;;;;;;;;;;5075083;28;20017;-77
2022/10/15 07:54:32;;;;;;;26.05;20.92;;;;;;;;;;5075349;28;20355;-75
2022/10/15 07:56:58;;;;;;;17.08;14.65;;;;;;;;;;5078586;28;20013;-75
2022/10/15 07:59:23;;;;;;;21.25;15.70;;;;;;;;;;5088236;28;20452;-77
2022/10/15 08:01:50;;;;;;;23.75;15.98;;;;;;;;;;5078606;28;20056;-77
2022/10/15 08:04:15;;;;;;;16.20;14.50;;;;;;;;;;5076968;28;20107;-77
2022/10/15 08:06:40;;;;;;;30.73;24.50;;;;;;;;;;5070470;28;20135;-77
2022/10/15 08:09:06;;;;;;;18.27;14.27;;;;;;;;;;5071772;28;20321;-74
2022/10/15 08:11:31;;;;;;;18.85;14.27;;;;;;;;;;5077396;28;20032;-74
2022/10/15 08:13:57;;;;;;;13.77;9.38;;;;;;;;;;5072674;28;20024;-74
2022/10/15 08:16:22;;;;;;;24.65;20.13;;;;;;;;;;5068082;28;20020;-76
2022/10/15 08:18:48;;;;;;;21.67;17.40;;;;;;;;;;5068793;28;20046;-73
2022/10/15 08:21:13;;;;;;;20.60;14.30;;;;;;;;;;5068547;28;20047;-73
2022/10/15 08:23:38;;;;;;;26.92;21.25;;;;;;;;;;5068004;28;20141;-74
2022/10/15 08:26:04;;;;;;;17.45;13.85;;;;;;;;;;5067025;28;20044;-75
2022/10/15 08:28:30;;;;;;;25.52;18.58;;;;;;;;;;5067498;28;20358;-74
2022/10/15 08:30:58;;;;;;;22.75;14.07;;;;;;;;;;5067372;28;20039;-74
2022/10/15 08:33:23;;;;;;;17.42;12.75;;;;;;;;;;5068683;28;20059;-75
2022/10/15 08:35:49;;;;;;;15.45;8.40;;;;;;;;;;5067586;28;20072;-75
2022/10/15 08:38:14;;;;;;;15.35;9.02;;;;;;;;;;5071928;28;20020;-75
2022/10/15 08:40:41;;;;;;;12.65;8.52;;;;;;;;;;5065995;28;20054;-75
2022/10/15 08:43:24;;;;;;;7.63;6.38;;;;;;;;;;5066444;28;20031;-74
2022/10/15 08:45:52;;;;;;;12.98;7.82;;;;;;;;;;5066725;28;20397;-78
2022/10/15 08:48:21;;;;;;;7.85;6.15;;;;;;;;;;5065573;28;20055;-77
2022/10/15 08:50:46;;;;;;;8.15;6.35;;;;;;;;;;5067630;28;20035;-78
2022/10/15 08:53:13;;;;;;;7.65;5.78;;;;;;;;;;5065708;28;20032;-76
2022/10/15 08:55:39;;;;;;;9.00;6.22;;;;;;;;;;5068682;28;20043;-78
2022/10/15 08:58:06;;;;;;;5.35;4.78;;;;;;;;;;5067562;28;20028;-76
2022/10/15 09:00:32;;;;;;;9.93;5.80;;;;;;;;;;5065687;28;20447;-78
2022/10/15 09:03:09;;;;;;;5.55;4.78;;;;;;;;;;5069284;28;20084;-78
2022/10/15 09:05:41;;;;;;;8.55;6.32;;;;;;;;;;5067403;28;20548;-77
2022/10/15 09:08:13;;;;;;;9.32;5.85;;;;;;;;;;5068604;28;20066;-75
2022/10/15 09:10:48;;;;;;;8.60;5.45;;;;;;;;;;5066595;28;20140;-77
2022/10/15 09:13:17;;;;;;;4.82;4.35;;;;;;;;;;5068155;28;21050;-80
2022/10/15 09:16:11;;;;;;;6.20;4.70;;;;;;;;;;5064540;28;20039;-79
2022/10/15 09:18:40;;;;;;;7.97;5.60;;;;;;;;;;5055081;28;20124;-77
2022/10/15 09:21:06;;;;;;;6.25;4.93;;;;;;;;;;5065847;28;20085;-79
2022/10/15 09:23:32;;;;;;;7.15;4.50;;;;;;;;;;5065973;28;20051;-79
2022/10/15 09:26:00;;;;;;;6.55;5.05;;;;;;;;;;5065475;28;20035;-76
2022/10/15 09:28:30;;;;;;;7.50;4.90;;;;;;;;;;5066309;28;20105;-77
2022/10/15 09:30:56;;;;;;;6.30;4.78;;;;;;;;;;5072941;28;20024;-81
2022/10/15 09:33:31;;;;;;;5.85;4.22;;;;;;;;;;5073810;28;20807;-78
2022/10/15 09:36:19;;;;;;;6.70;4.65;;;;;;;;;;5081926;28;20024;-78
2022/10/15 09:38:51;;;;;;;5.82;4.28;;;;;;;;;;5074872;28;20032;-78
2022/10/15 09:41:29;;;;;;;5.97;4.13;;;;;;;;;;5082144;28;20039;-79
2022/10/15 09:43:56;;;;;;;5.25;4.70;;;;;;;;;;5069597;28;20047;-77
2022/10/15 09:46:21;;;;;;;5.30;4.20;;;;;;;;;;5067148;28;20028;-78
2022/10/15 09:48:50;;;;;;;10.48;4.93;;;;;;;;;;5082668;28;20356;-77
2022/10/15 09:51:20;;;;;;;12.50;5.93;;;;;;;;;;5073441;28;20032;-76
2022/10/15 09:54:02;;;;;;;13.95;6.00;;;;;;;;;;5073090;28;20028;-78
2022/10/15 09:56:34;;;;;;;9.35;5.10;;;;;;;;;;5084074;28;20079;-76
2022/10/15 09:58:59;;;;;;;8.82;4.50;;;;;;;;;;5073664;28;20386;-77
2022/10/15 10:01:26;;;;;;;5.72;3.90;;;;;;;;;;5075942;28;20081;-77
2022/10/15 10:04:10;;;;;;;7.03;4.63;;;;;;;;;;5082951;28;20020;-77
2022/10/15 10:06:42;;;;;;;6.10;4.15;;;;;;;;;;5075951;28;20089;-77
2022/10/15 10:09:15;;;;;;;8.82;4.63;;;;;;;;;;5070636;28;20028;-76
2022/10/15 10:11:54;;;;;;;8.70;5.50;;;;;;;;;;5069255;28;20036;-78
2022/10/15 10:14:22;;;;;;;7.25;5.32;;;;;;;;;;5066943;28;20120;-76
2022/10/15 10:17:03;;;;;;;11.07;5.60;;;;;;;;;;5069026;28;20073;-77
2022/10/15 10:19:28;;;;;;;11.30;4.80;;;;;;;;;;5071838;28;20435;-75
2022/10/15 10:22:04;;;;;;;5.22;4.05;;;;;;;;;;5071098;28;20119;-78
2022/10/15 10:24:33;;;;;;;4.13;3.72;;;;;;;;;;5070708;28;20028;-78
2022/10/15 10:26:59;;;;;;;5.88;3.38;;;;;;;;;;5078776;28;20024;-76
2022/10/15 10:29:24;;;;;;;4.85;3.97;;;;;;;;;;5079926;28;20088;-76
2022/10/15 10:31:51;;;;;;;6.97;3.83;;;;;;;;;;5078485;28;20110;-78
2022/10/15 10:34:19;;;;;;;5.80;3.85;;;;;;;;;;5081443;28;20020;-75
2022/10/15 10:36:48;;;;;;;7.60;3.85;;;;;;;;;;5084314;28;20108;-77
2022/10/15 10:39:30;;;;;;;5.68;3.53;;;;;;;;;;5083858;28;20024;-76
2022/10/15 10:41:56;;;;;;;6.88;3.90;;;;;;;;;;5084001;28;20035;-76
2022/10/15 10:44:35;;;;;;;5.43;3.88;;;;;;;;;;5081755;28;20397;-77
2022/10/15 10:47:07;;;;;;;9.30;3.58;;;;;;;;;;5082122;28;20048;-77
2022/10/15 10:49:37;;;;;;;12.50;4.72;;;;;;;;;;5084100;28;20108;-77
2022/10/15 10:52:03;;;;;;;5.40;4.07;;;;;;;;;;5083232;28;20629;-78
2022/10/15 10:54:29;;;;;;;5.53;4.35;;;;;;;;;;5070187;28;20450;-75
2022/10/15 10:56:55;;;;;;;4.03;3.63;;;;;;;;;;5070187;28;20081;-77
2022/10/15 10:59:34;;;;;;;5.07;4.20;;;;;;;;;;5071905;28;20012;-77
2022/10/15 11:01:59;;;;;;;5.60;4.13;;;;;;;;;;5083187;28;20032;-76
2022/10/15 11:04:26;;;;;;;6.30;4.00;;;;;;;;;;5068436;28;20485;-75
2022/10/15 11:06:59;;;;;;;7.70;4.13;;;;;;;;;;5069482;28;20099;-77
2022/10/15 11:09:43;;;;;;;4.82;4.20;;;;;;;;;;5080200;28;20431;-75
2022/10/15 11:12:29;;;;;;;5.63;4.38;;;;;;;;;;5081825;28;20028;-76
2022/10/15 11:15:13;;;;;;;8.25;3.80;;;;;;;;;;5071666;28;20032;-75
2022/10/15 11:17:47;;;;;;;6.90;3.85;;;;;;;;;;5074026;28;20028;-75
2022/10/15 11:20:25;;;;;;;5.63;3.83;;;;;;;;;;5071866;28;20363;-76
2022/10/15 11:22:50;;;;;;;4.63;3.75;;;;;;;;;;5069500;28;20111;-76
2022/10/15 11:25:19;;;;;;;6.93;5.05;;;;;;;;;;5068419;28;20143;-76
2022/10/15 11:28:02;;;;;;;8.67;4.27;;;;;;;;;;5075385;28;20024;-75
2022/10/15 11:30:46;;;;;;;6.35;3.67;;;;;;;;;;5071179;28;20342;-76
2022/10/15 11:33:12;;;;;;;5.40;3.60;;;;;;;;;;5068749;28;20023;-76
2022/10/15 11:35:37;;;;;;;4.43;3.78;;;;;;;;;;5081420;28;20032;-75
2022/10/15 11:38:14;;;;;;;5.60;4.15;;;;;;;;;;5080551;28;20020;-75
2022/10/15 11:40:49;;;;;;;6.95;4.10;;;;;;;;;;5070762;28;20125;-76
2022/10/15 11:43:17;;;;;;;8.68;4.40;;;;;;;;;;5071614;28;20031;-75
2022/10/15 11:45:54;;;;;;;4.27;3.60;;;;;;;;;;5068794;28;20012;-75
2022/10/15 11:48:38;;;;;;;7.53;4.72;;;;;;;;;;5066920;28;20285;-76
2022/10/15 11:51:26;;;;;;;4.55;4.00;;;;;;;;;;5069126;28;20511;-77
2022/10/15 11:54:04;;;;;;;7.57;5.35;;;;;;;;;;5069222;28;20355;-77
2022/10/15 11:56:56;;;;;;;4.50;3.80;;;;;;;;;;5064956;28;20414;-77
2022/10/15 11:59:27;;;;;;;4.50;3.55;;;;;;;;;;5075558;28;20093;-76
2022/10/15 12:01:54;;;;;;;5.88;3.65;;;;;;;;;;5073537;28;20056;-75
2022/10/15 12:04:25;;;;;;;4.15;3.72;;;;;;;;;;5067748;28;20036;-75
2022/10/15 12:06:51;;;;;;;12.90;5.72;;;;;;;;;;5068384;28;20465;-74
2022/10/15 12:09:36;;;;;;;6.97;4.72;;;;;;;;;;5067200;28;20024;-74
2022/10/15 12:12:16;;;;;;;7.72;4.88;;;;;;;;;;5071090;28;20028;-78
2022/10/15 12:15:00;;;;;;;8.90;4.65;;;;;;;;;;5083246;28;20356;-75
2022/10/15 12:17:31;;;;;;;7.05;6.35;;;;;;;;;;5092598;28;20028;-78
2022/10/15 12:20:05;;;;;;;5.75;5.15;;;;;;;;;;5093772;28;20034;-76
2022/10/15 12:22:32;;;;;;;12.43;7.93;;;;;;;;;;5093729;28;20114;-75
2022/10/15 12:24:58;;;;;;;8.63;6.05;;;;;;;;;;5094095;28;20016;-76
2022/10/15 12:27:23;;;;;;;14.45;5.40;;;;;;;;;;5094363;28;20039;-77
2022/10/15 12:30:12;;;;;;;5.03;4.28;;;;;;;;;;5093824;28;20445;-77
2022/10/15 12:32:37;;;;;;;8.23;6.40;;;;;;;;;;5084783;28;20329;-77
2022/10/15 12:35:23;;;;;;;5.38;4.40;;;;;;;;;;5094012;28;20020;-78
2022/10/15 12:37:49;;;;;;;6.47;5.43;;;;;;;;;;5093820;28;20038;-77
2022/10/15 12:40:18;;;;;;;6.57;4.93;;;;;;;;;;5094099;28;20481;-75
2022/10/15 12:42:48;;;;;;;4.72;4.25;;;;;;;;;;5072491;28;20039;-75
2022/10/15 12:45:20;;;;;;;4.75;4.20;;;;;;;;;;5066293;28;20533;-75
2022/10/15 12:47:45;;;;;;;5.30;4.43;;;;;;;;;;5067111;28;20739;-75
2022/10/15 12:50:24;;;;;;;4.63;4.18;;;;;;;;;;5067577;28;20126;-76
2022/10/15 12:52:52;;;;;;;8.20;4.60;;;;;;;;;;5067939;28;20063;-74
2022/10/15 12:55:38;;;;;;;5.50;4.90;;;;;;;;;;5067414;28;20028;-76
2022/10/15 12:58:05;;;;;;;9.45;5.68;;;;;;;;;;5067384;28;20051;-75
2022/10/15 13:00:32;;;;;;;11.00;5.75;;;;;;;;;;5076656;28;20032;-76
2022/10/15 13:03:08;;;;;;;10.43;7.32;;;;;;;;;;5079450;28;20078;-75
2022/10/15 13:05:34;;;;;;;8.65;7.28;;;;;;;;;;5068162;28;20406;-77
2022/10/15 13:08:01;;;;;;;6.65;5.13;;;;;;;;;;5066301;28;20047;-76
2022/10/15 13:10:28;;;;;;;8.13;5.85;;;;;;;;;;5067268;28;20042;-76
2022/10/15 13:12:58;;;;;;;9.32;7.60;;;;;;;;;;5066527;28;20016;-75
2022/10/15 13:15:25;;;;;;;5.80;4.85;;;;;;;;;;5067113;28;20030;-76
2022/10/15 13:17:50;;;;;;;5.15;4.60;;;;;;;;;;5068018;28;20016;-75
2022/10/15 13:20:46;;;;;;;5.63;4.85;;;;;;;;;;5066885;28;20042;-75
2022/10/15 13:23:16;;;;;;;7.38;4.10;;;;;;;;;;4976762;28;20048;-74
2022/10/15 13:25:42;;;;;;;4.85;4.35;;;;;;;;;;4977793;28;20358;-75
2022/10/15 13:28:25;;;;;;;8.10;4.72;;;;;;;;;;4983897;28;20045;-75
2022/10/15 13:30:51;;;;;;;9.32;4.70;;;;;;;;;;4975799;28;20042;-75
2022/10/15 13:33:16;;;;;;;7.95;5.18;;;;;;;;;;4975491;28;20573;-75
2022/10/15 13:35:41;;;;;;;5.68;4.50;;;;;;;;;;4977147;28;20036;-74
2022/10/15 13:38:17;;;;;;;4.32;3.90;;;;;;;;;;4975288;28;20485;-76
2022/10/15 13:40:45;;;;;;;4.38;3.85;;;;;;;;;;4975895;28;20390;-75
2022/10/15 13:43:18;;;;;;;5.57;4.57;;;;;;;;;;4977766;28;20451;-74
2022/10/15 13:45:47;;;;;;;5.35;4.80;;;;;;;;;;4979196;28;20342;-75
2022/10/15 13:48:16;;;;;;;8.10;5.97;;;;;;;;;;4980496;28;20081;-76
2022/10/15 13:50:41;;;;;;;7.93;6.10;;;;;;;;;;4985986;28;20044;-75
2022/10/15 13:53:21;;;;;;;7.18;5.85;;;;;;;;;;4984473;28;20042;-76
2022/10/15 13:55:48;;;;;;;7.32;6.63;;;;;;;;;;4982806;28;20346;-75
2022/10/15 13:58:21;;;;;;;6.53;5.50;;;;;;;;;;4983775;28;20029;-74
2022/10/15 14:00:54;;;;;;;8.25;5.78;;;;;;;;;;5067261;28;20106;-76
2022/10/15 14:03:23;;;;;;;5.95;5.05;;;;;;;;;;5067513;28;20054;-73
2022/10/15 14:05:51;;;;;;;4.90;4.40;;;;;;;;;;5067615;28;20028;-75
2022/10/15 14:08:23;;;;;;;6.72;4.00;;;;;;;;;;5066702;28;20406;-75
2022/10/15 14:10:49;;;;;;;4.47;4.07;;;;;;;;;;5066234;28;20031;-75
2022/10/15 14:13:15;;;;;;;7.90;4.78;;;;;;;;;;5072416;28;20036;-74
2022/10/15 14:15:40;;;;;;;6.28;5.35;;;;;;;;;;5068912;28;20572;-75
2022/10/15 14:18:06;;;;;;;6.45;4.95;;;;;;;;;;5075710;28;20068;-74
2022/10/15 14:20:32;;;;;;;6.15;3.80;;;;;;;;;;5074631;28;20032;-78
2022/10/15 14:22:57;;;;;;;4.72;4.28;;;;;;;;;;5078418;28;20374;-74
2022/10/15 14:25:23;;;;;;;4.55;4.15;;;;;;;;;;5074021;28;20029;-75
2022/10/15 14:27:49;;;;;;;4.68;3.70;;;;;;;;;;5071238;28;20118;-74
2022/10/15 14:30:21;;;;;;;7.80;4.55;;;;;;;;;;5072679;28;20112;-74
2022/10/15 14:32:50;;;;;;;10.30;7.47;;;;;;;;;;5075190;28;20098;-75
2022/10/15 14:35:29;;;;;;;6.88;4.97;;;;;;;;;;5081637;28;20040;-74